Time;durP1;ratioP1;P1;durP2;ratioP2;P2;SDS_P1;SDS_P2;PMS_P1;PMS_P2;Temp;Humidity;BMP_temperature;BMP_pressure;BME280_temperature;BME280_humidity;BME280_pressure;Samples;Min_cycle;Max_cycle;Signal;HPM_P1;HPM_P2
2020/12/02 00:00:45;;;;;;;;;;;;;;;-0.58;100.00;92864.72;1064163;55;20177;-82
2020/12/02 00:01:48;;;;;;;;;;;;;;;-0.60;100.00;92862.47;1061959;55;20181;-83
2020/12/02 00:02:54;;;;;;;;;;;;;;;-0.55;99.93;92856.91;1062088;55;20162;-85
2020/12/02 00:03:58;;;;;;;;;;;;;;;-0.64;100.00;92859.03;1062282;55;20744;-83
2020/12/02 00:05:02;;;;;;;;;;;;;;;-0.61;100.00;92860.19;1064289;55;20208;-83
2020/12/02 00:06:03;;;;;;;;;;;;;;;-0.72;100.00;92856.63;1066153;55;20248;-84
2020/12/02 00:07:05;;;;;;;;;;;;;;;-0.59;100.00;92869.22;1061941;55;20188;-82
2020/12/02 00:08:07;;;;;;;;;;;;;;;-0.70;100.00;92860.44;1062039;55;20181;-83
2020/12/02 00:09:15;;;;;;;;;;;;;;;-0.66;100.00;92857.84;1064156;55;20161;-83
2020/12/02 00:10:15;;;;;;;;;;;;;;;-0.65;100.00;92856.75;1062530;55;20162;-82
2020/12/02 00:11:16;;;;;;;;;;;;;;;-0.60;100.00;92862.47;1066377;55;20164;-85
2020/12/02 00:12:16;;;;;;;;;;;;;;;-0.58;100.00;92854.97;1066192;55;20267;-83
2020/12/02 00:13:21;;;;;;;;;;;;;;;-0.54;100.00;92855.78;1064236;55;20177;-82
2020/12/02 00:14:25;;;;;;;;;;;;;;;-0.66;100.00;92857.84;1064301;55;20177;-82
2020/12/02 00:15:26;;;;;;;;;;;;;;;-0.63;100.00;92860.53;1066182;55;20189;-82
2020/12/02 00:16:28;;;;;;;;;;;;;;;-0.59;100.00;92850.09;1064108;55;20189;-83
2020/12/02 00:17:28;;;;;;;;;;;;;;;-0.55;100.00;92854.28;1068564;55;20179;-82
2020/12/02 00:18:29;;;;;;;;;;;;;;;-0.43;100.00;92853.34;1070398;55;20172;-82
2020/12/02 00:19:29;;;;;;;;;;;;;;;-0.55;100.00;92846.41;1068068;55;20145;-83
2020/12/02 00:20:30;;;;;;;;;;;;;;;-0.50;100.00;92861.09;1068577;55;20187;-85
2020/12/02 00:21:33;;;;;;;;;;;;;;;-0.55;100.00;92854.28;1066189;55;20685;-83
2020/12/02 00:22:36;;;;;;;;;;;;;;;-0.62;100.00;92854.16;1068351;55;20363;-83
2020/12/02 00:23:36;;;;;;;;;;;;;;;-0.58;100.00;92856.84;1064431;55;20247;-82
2020/12/02 00:24:40;;;;;;;;;;;;;;;-0.55;100.00;92859.53;1068449;55;20258;-83
2020/12/02 00:25:41;;;;;;;;;;;;;;;-0.59;100.00;92856.09;1070537;55;21179;-86
2020/12/02 00:26:41;;;;;;;;;;;;;;;-0.59;100.00;92863.22;1066089;55;20153;-82
2020/12/02 00:27:42;;;;;;;;;;;;;;;-0.58;100.00;92860.22;1063949;55;20189;-81
2020/12/02 00:28:45;;;;;;;;;;;;;;;-0.56;100.00;92855.41;1064190;55;20157;-83
2020/12/02 00:29:46;;;;;;;;;;;;;;;-0.63;100.00;92857.16;1061901;56;20252;-82
2020/12/02 00:30:47;;;;;;;;;;;;;;;-0.58;100.00;92846.34;1064499;55;20157;-82
2020/12/02 00:31:50;;;;;;;;;;;;;;;-0.60;100.00;92862.47;1068013;55;20179;-84
2020/12/02 00:32:51;;;;;;;;;;;;;;;-0.66;100.00;92852.59;1066069;55;20201;-83
2020/12/02 00:33:54;;;;;;;;;;;;;;;-0.61;100.00;92855.69;1068295;55;20157;-82
2020/12/02 00:34:54;;;;;;;;;;;;;;;-0.66;100.00;92865.72;1068153;55;20610;-84
2020/12/02 00:35:56;;;;;;;;;;;;;;;-0.63;100.00;92859.78;1066022;55;20270;-82
2020/12/02 00:36:56;;;;;;;;;;;;;;;-0.52;100.00;92858.84;1063970;55;20693;-82
2020/12/02 00:37:57;;;;;;;;;;;;;;;-0.57;100.00;92861.75;1063869;55;20176;-82
2020/12/02 00:38:57;;;;;;;;;;;;;;;-0.47;100.00;92859.66;1063834;55;20154;-85
2020/12/02 00:40:00;;;;;;;;;;;;;;;-0.63;100.00;92857.91;1066114;55;20250;-83
2020/12/02 00:41:00;;;;;;;;;;;;;;;-0.59;100.00;92865.84;1066009;55;20228;-84
2020/12/02 00:42:01;;;;;;;;;;;;;;;-0.59;100.00;92857.97;1065974;55;20166;-81
2020/12/02 00:43:02;;;;;;;;;;;;;;;-0.58;100.00;92857.59;1070254;55;20648;-83
2020/12/02 00:44:04;;;;;;;;;;;;;;;-0.58;100.00;92864.72;1068189;55;20173;-83
2020/12/02 00:45:09;;;;;;;;;;;;;;;-0.59;100.00;92857.97;1066074;55;20181;-83
2020/12/02 00:46:09;;;;;;;;;;;;;;;-0.57;100.00;92856.50;1063909;55;20617;-83
2020/12/02 00:47:11;;;;;;;;;;;;;;;-0.60;100.00;92851.97;1063958;55;20166;-83
2020/12/02 00:48:17;;;;;;;;;;;;;;;-0.61;100.00;92855.69;1061689;55;20202;-84
2020/12/02 00:49:18;;;;;;;;;;;;;;;-0.54;100.00;92845.28;1064483;55;20668;-83
2020/12/02 00:50:20;;;;;;;;;;;;;;;-0.58;100.00;92859.47;1063995;55;20158;-85
2020/12/02 00:51:20;;;;;;;;;;;;;;;-0.55;100.00;92856.91;1066182;55;20665;-83
2020/12/02 00:52:25;;;;;;;;;;;;;;;-0.55;99.96;92856.91;1066247;55;20181;-87
2020/12/02 00:53:27;;;;;;;;;;;;;;;-0.59;100.00;92853.47;1064467;55;20303;-82
2020/12/02 00:54:27;;;;;;;;;;;;;;;-0.55;100.00;92849.03;1064067;55;20158;-83
2020/12/02 00:55:28;;;;;;;;;;;;;;;-0.55;100.00;92854.28;1066316;55;20759;-83
2020/12/02 00:56:29;;;;;;;;;;;;;;;-0.57;100.00;92843.37;1066090;55;20258;-82
2020/12/02 00:57:33;;;;;;;;;;;;;;;-0.51;100.00;92844.59;1066135;55;20250;-82
2020/12/02 00:58:52;;;;;;;;;;;;;;;-0.60;100.00;92846.72;1066305;55;20185;-87
2020/12/02 00:59:54;;;;;;;;;;;;;;;-0.59;100.00;92839.59;1068309;55;20164;-82
2020/12/02 01:00:56;;;;;;;;;;;;;;;-0.66;100.00;92839.47;1068433;55;20153;-84
2020/12/02 01:02:14;;;;;;;;;;;;;;;-0.66;100.00;92840.25;1068533;55;20173;-84
2020/12/02 01:03:25;;;;;;;;;;;;;;;-0.62;100.00;92846.28;1066128;55;20180;-81
2020/12/02 01:04:25;;;;;;;;;;;;;;;-0.63;100.00;92834.28;1066806;55;20166;-84
2020/12/02 01:05:26;;;;;;;;;;;;;;;-0.61;100.00;92836.56;1066333;55;20672;-83
2020/12/02 01:06:29;;;;;;;;;;;;;;;-0.64;100.00;92837.25;1064129;55;20619;-83
2020/12/02 01:07:31;;;;;;;;;;;;;;;-0.65;100.00;92836.50;1066138;55;20617;-84
2020/12/02 01:08:34;;;;;;;;;;;;;;;-0.62;100.00;92840.28;1063962;55;20161;-84
2020/12/02 01:09:35;;;;;;;;;;;;;;;-0.56;100.00;92838.91;1066365;55;20199;-83
2020/12/02 01:10:35;;;;;;;;;;;;;;;-0.54;100.00;92839.28;1064258;55;20161;-84
2020/12/02 01:11:36;;;;;;;;;;;;;;;-0.58;100.00;92833.97;1066318;55;20177;-82
2020/12/02 01:12:38;;;;;;;;;;;;;;;-0.60;100.00;92838.84;1068511;55;20637;-82
2020/12/02 01:13:39;;;;;;;;;;;;;;;-0.62;100.00;92838.41;1063974;55;20185;-83
2020/12/02 01:14:39;;;;;;;;;;;;;;;-0.55;100.00;92830.66;1066355;55;20181;-84
2020/12/02 01:15:40;;;;;;;;;;;;;;;-0.56;100.00;92833.66;1063881;55;20158;-84
2020/12/02 01:16:43;;;;;;;;;;;;;;;-0.64;100.00;92835.41;1063790;55;20217;-83
2020/12/02 01:17:43;;;;;;;;;;;;;;;-0.69;100.00;92837.56;1061841;55;20614;-84
2020/12/02 01:18:44;;;;;;;;;;;;;;;-0.71;100.00;92827.41;1061787;56;20165;-83
2020/12/02 01:19:44;;;;;;;;;;;;;;;-0.76;100.00;92827.69;1066263;55;20165;-84
2020/12/02 01:20:46;;;;;;;;;;;;;;;-0.80;100.00;92832.12;1066159;55;20176;-85
2020/12/02 01:21:53;;;;;;;;;;;;;;;-0.79;100.00;92833.62;1066102;55;20154;-83
2020/12/02 01:22:53;;;;;;;;;;;;;;;-0.77;100.00;92826.94;1068310;55;20164;-84
2020/12/02 01:23:58;;;;;;;;;;;;;;;-0.68;100.00;92820.69;1066226;55;20196;-84
2020/12/02 01:25:05;;;;;;;;;;;;;;;-0.66;100.00;92826.34;1066134;55;20180;-82
2020/12/02 01:26:08;;;;;;;;;;;;;;;-0.67;100.00;92828.22;1064330;55;20177;-83
2020/12/02 01:27:17;;;;;;;;;;;;;;;-0.72;100.00;92823.28;1064173;55;20184;-82
2020/12/02 01:28:21;;;;;;;;;;;;;;;-0.73;100.00;92827.00;1064256;55;20683;-87
2020/12/02 01:29:28;;;;;;;;;;;;;;;-0.65;100.00;92820.75;1066275;55;20157;-83
2020/12/02 01:30:30;;;;;;;;;;;;;;;-0.73;100.00;92823.63;1066312;55;20201;-82
2020/12/02 01:31:30;;;;;;;;;;;;;;;-0.73;100.00;92824.38;1066123;55;20239;-81
2020/12/02 01:32:31;;;;;;;;;;;;;;;-0.76;100.00;92822.44;1066185;55;20236;-83
2020/12/02 01:33:31;;;;;;;;;;;;;;;-0.76;100.00;92817.97;1064163;55;20216;-82
2020/12/02 01:34:32;;;;;;;;;;;;;;;-0.81;100.00;92820.13;1064156;55;20232;-83
2020/12/02 01:35:32;;;;;;;;;;;;;;;-0.76;100.00;92819.81;1064240;55;20241;-84
2020/12/02 01:36:51;;;;;;;;;;;;;;;-0.88;100.00;92827.88;1061878;56;20169;-83
2020/12/02 01:37:56;;;;;;;;;;;;;;;-0.84;100.00;92828.69;1066060;55;20162;-81
2020/12/02 01:38:58;;;;;;;;;;;;;;;-0.79;100.00;92823.16;1066392;55;20154;-84
2020/12/02 01:40:11;;;;;;;;;;;;;;;-0.83;100.00;92827.59;1066269;55;20184;-84
2020/12/02 01:41:12;;;;;;;;;;;;;;;-0.78;100.00;92824.69;1068353;55;20157;-84
2020/12/02 01:42:12;;;;;;;;;;;;;;;-0.79;100.00;92823.94;1063920;55;21196;-83
2020/12/02 01:43:13;;;;;;;;;;;;;;;-0.76;100.00;92817.22;1065324;55;21314;-83
2020/12/02 01:44:14;;;;;;;;;;;;;;;-0.77;100.00;92818.31;1066089;55;20169;-84
2020/12/02 01:45:21;;;;;;;;;;;;;;;-0.83;100.00;92814.50;1066281;55;20192;-84
2020/12/02 01:46:31;;;;;;;;;;;;;;;-0.80;100.00;92817.16;1068599;55;20238;-83
2020/12/02 01:47:34;;;;;;;;;;;;;;;-0.80;100.00;92813.75;1066209;55;20262;-83
2020/12/02 01:48:35;;;;;;;;;;;;;;;-0.83;100.00;92819.72;1066245;55;20180;-83
2020/12/02 01:49:40;;;;;;;;;;;;;;;-0.84;100.00;92816.31;1066032;55;20161;-85
2020/12/02 01:50:45;;;;;;;;;;;;;;;-0.84;100.00;92805.84;1066065;55;20175;-84
2020/12/02 01:51:45;;;;;;;;;;;;;;;-0.88;100.00;92815.53;1064306;55;20178;-83
2020/12/02 01:53:01;;;;;;;;;;;;;;;-0.87;100.00;92809.19;1063830;55;20169;-84
2020/12/02 01:54:04;;;;;;;;;;;;;;;-0.92;100.00;92814.72;1069660;55;20645;-83
2020/12/02 01:55:09;;;;;;;;;;;;;;;-0.93;100.00;92807.94;1068215;55;20630;-83
2020/12/02 01:56:16;;;;;;;;;;;;;;;-0.83;100.00;92801.38;1064320;55;20783;-82
2020/12/02 01:57:25;;;;;;;;;;;;;;;-0.81;100.00;92805.13;1068450;55;20184;-83
2020/12/02 01:58:34;;;;;;;;;;;;;;;-0.69;100.00;92801.59;1068311;55;21200;-85
2020/12/02 01:59:44;;;;;;;;;;;;;;;-0.78;100.00;92807.06;1064276;55;20384;-84
2020/12/02 02:00:51;;;;;;;;;;;;;;;-0.82;100.00;92803.63;1064783;55;20192;-83
2020/12/02 02:01:54;;;;;;;;;;;;;;;-0.81;100.00;92804.38;1064456;55;20247;-86
2020/12/02 02:03:10;;;;;;;;;;;;;;;-0.81;100.00;92809.62;1064137;55;20180;-83
2020/12/02 02:04:13;;;;;;;;;;;;;;;-0.80;100.00;92811.16;1065138;55;20190;-83
2020/12/02 02:05:19;;;;;;;;;;;;;;;-0.76;100.00;92806.72;1066387;55;20180;-84
2020/12/02 02:06:25;;;;;;;;;;;;;;;-0.82;100.00;92814.13;1068394;55;20718;-82
2020/12/02 02:07:26;;;;;;;;;;;;;;;-0.91;100.00;92811.00;1064281;55;20247;-82
2020/12/02 02:08:32;;;;;;;;;;;;;;;-0.83;100.00;92815.25;1064401;55;20196;-85
2020/12/02 02:09:32;;;;;;;;;;;;;;;-0.83;100.00;92817.12;1063965;55;20170;-83
2020/12/02 02:10:37;;;;;;;;;;;;;;;-0.90;100.00;92817.00;1063963;55;20192;-83
2020/12/02 02:11:41;;;;;;;;;;;;;;;-0.87;100.00;92811.06;1066305;55;20187;-82
2020/12/02 02:12:55;;;;;;;;;;;;;;;-0.87;100.00;92808.44;1064199;55;20170;-83
2020/12/02 02:14:08;;;;;;;;;;;;;;;-0.90;100.00;92806.50;1066699;55;20189;-82
2020/12/02 02:15:27;;;;;;;;;;;;;;;-0.83;100.00;92806.63;1064327;55;20188;-82
2020/12/02 02:16:38;;;;;;;;;;;;;;;-0.94;100.00;92803.06;1063024;55;20162;-83
2020/12/02 02:17:38;;;;;;;;;;;;;;;-0.94;100.00;92810.94;1062467;55;20154;-82
2020/12/02 02:18:39;;;;;;;;;;;;;;;-0.92;100.00;92806.84;1063912;55;20251;-83
2020/12/02 02:19:39;;;;;;;;;;;;;;;-0.85;100.00;92808.81;1064054;55;20157;-82
2020/12/02 02:20:44;;;;;;;;;;;;;;;-0.88;100.00;92799.00;1063704;55;20214;-84
2020/12/02 02:21:45;;;;;;;;;;;;;;;-0.81;100.00;92804.38;1068386;55;20184;-84
2020/12/02 02:22:46;;;;;;;;;;;;;;;-0.93;100.00;92805.31;1066125;55;20154;-83
2020/12/02 02:23:47;;;;;;;;;;;;;;;-0.94;100.00;92806.44;1066183;55;20239;-83
2020/12/02 02:24:50;;;;;;;;;;;;;;;-0.98;100.00;92808.25;1066159;55;20165;-87
2020/12/02 02:26:02;;;;;;;;;;;;;;;-1.02;100.00;92807.41;1063914;55;20598;-83
2020/12/02 02:27:03;;;;;;;;;;;;;;;-1.06;100.00;92806.59;1064400;55;20158;-84
2020/12/02 02:28:04;;;;;;;;;;;;;;;-1.07;100.00;92816.34;1061707;56;20256;-82
2020/12/02 02:29:13;;;;;;;;;;;;;;;-0.93;100.00;92801.94;1066249;55;20169;-84
2020/12/02 02:30:14;;;;;;;;;;;;;;;-0.97;100.00;92807.13;1064325;55;20158;-82
2020/12/02 02:31:20;;;;;;;;;;;;;;;-0.93;100.00;92799.31;1065999;55;20173;-82
2020/12/02 02:32:22;;;;;;;;;;;;;;;-0.94;100.00;92800.44;1068247;55;20188;-83
2020/12/02 02:33:23;;;;;;;;;;;;;;;-1.00;100.00;92805.22;1066132;55;20169;-83
2020/12/02 02:34:24;;;;;;;;;;;;;;;-1.00;100.00;92802.59;1064281;55;20657;-84
2020/12/02 02:35:28;;;;;;;;;;;;;;;-0.99;100.00;92808.59;1063985;55;20201;-83
2020/12/02 02:36:28;;;;;;;;;;;;;;;-0.92;100.00;92813.94;1064082;55;20162;-83
2020/12/02 02:37:31;;;;;;;;;;;;;;;-0.94;100.00;92800.44;1066301;55;20232;-81
2020/12/02 02:38:31;;;;;;;;;;;;;;;-0.95;100.00;92806.78;1062029;55;20630;-84
2020/12/02 02:39:32;;;;;;;;;;;;;;;-0.98;100.00;92797.75;1061942;56;20292;-83
2020/12/02 02:40:32;;;;;;;;;;;;;;;-0.97;100.00;92801.13;1061714;56;20614;-84
2020/12/02 02:41:33;;;;;;;;;;;;;;;-0.99;100.00;92800.72;1064063;55;20184;-82
2020/12/02 02:42:38;;;;;;;;;;;;;;;-0.94;100.00;92803.06;1063849;55;20264;-84
2020/12/02 02:43:39;;;;;;;;;;;;;;;-0.93;100.00;92799.31;1064374;55;20232;-84
2020/12/02 02:44:39;;;;;;;;;;;;;;;-0.93;100.00;92796.69;1066074;55;20169;-84
2020/12/02 02:45:39;;;;;;;;;;;;;;;-0.92;100.00;92792.97;1066072;55;21141;-83
2020/12/02 02:46:41;;;;;;;;;;;;;;;-0.95;100.00;92794.44;1068351;55;20189;-83
2020/12/02 02:47:41;;;;;;;;;;;;;;;-0.96;100.00;92803.41;1066106;55;20207;-82
2020/12/02 02:48:41;;;;;;;;;;;;;;;-0.93;100.00;92794.81;1063807;55;20161;-82
2020/12/02 02:49:42;;;;;;;;;;;;;;;-0.95;100.00;92801.53;1065850;55;20693;-85
2020/12/02 02:50:42;;;;;;;;;;;;;;;-0.95;100.00;92799.69;1065998;55;20162;-85
2020/12/02 02:51:43;;;;;;;;;;;;;;;-0.97;100.00;92798.50;1063876;55;20673;-83
2020/12/02 02:52:44;;;;;;;;;;;;;;;-0.95;100.00;92804.16;1065786;55;20308;-84
2020/12/02 02:53:46;;;;;;;;;;;;;;;-0.89;100.00;92797.50;1066219;55;20257;-82
2020/12/02 02:54:47;;;;;;;;;;;;;;;-0.90;100.00;92798.63;1061840;56;20189;-83
2020/12/02 02:55:48;;;;;;;;;;;;;;;-0.88;100.00;92789.31;1064137;55;20165;-85
2020/12/02 02:56:52;;;;;;;;;;;;;;;-0.84;100.00;92805.84;1063902;55;20194;-84
2020/12/02 02:57:54;;;;;;;;;;;;;;;-0.85;100.00;92799.09;1063968;55;20208;-87
2020/12/02 02:58:55;;;;;;;;;;;;;;;-0.87;100.00;92795.31;1064073;55;21102;-84
2020/12/02 02:59:57;;;;;;;;;;;;;;;-0.88;100.00;92796.41;1066350;55;20164;-83
2020/12/02 03:00:59;;;;;;;;;;;;;;;-0.89;100.00;92789.63;1063951;55;20271;-82
2020/12/02 03:01:59;;;;;;;;;;;;;;;-0.80;100.00;92800.66;1061825;55;20628;-82
2020/12/02 03:03:03;;;;;;;;;;;;;;;-0.78;100.00;92793.94;1061818;56;20264;-82
2020/12/02 03:04:03;;;;;;;;;;;;;;;-0.93;100.00;92800.06;1064021;55;20723;-83
2020/12/02 03:05:05;;;;;;;;;;;;;;;-0.96;100.00;92797.41;1063971;55;20205;-83
2020/12/02 03:06:07;;;;;;;;;;;;;;;-0.95;100.00;92797.06;1063882;55;20192;-82
2020/12/02 03:07:13;;;;;;;;;;;;;;;-0.97;100.00;92791.37;1066079;55;20158;-83
2020/12/02 03:08:15;;;;;;;;;;;;;;;-0.97;100.00;92796.63;1064075;55;20184;-88
2020/12/02 03:09:15;;;;;;;;;;;;;;;-0.94;100.00;92789.94;1064026;55;20166;-82
2020/12/02 03:10:20;;;;;;;;;;;;;;;-0.94;100.00;92789.94;1063967;55;20251;-82
2020/12/02 03:11:20;;;;;;;;;;;;;;;-0.92;100.00;92792.97;1063956;55;20229;-84
2020/12/02 03:12:21;;;;;;;;;;;;;;;-0.95;100.00;92793.69;1063860;55;20263;-83
2020/12/02 03:13:40;;;;;;;;;;;;;;;-0.89;100.00;92792.25;1063778;55;20188;-84
2020/12/02 03:14:41;;;;;;;;;;;;;;;-0.95;100.00;92789.19;1063027;55;20166;-84
2020/12/02 03:15:42;;;;;;;;;;;;;;;-0.92;100.00;92785.88;1063868;55;20162;-82
2020/12/02 03:16:45;;;;;;;;;;;;;;;-0.88;100.00;92788.53;1061779;56;20181;-84
2020/12/02 03:17:46;;;;;;;;;;;;;;;-0.90;100.00;92791.50;1063993;55;20733;-84
2020/12/02 03:18:47;;;;;;;;;;;;;;;-0.96;100.00;92795.53;1066262;55;20262;-82
2020/12/02 03:19:50;;;;;;;;;;;;;;;-0.95;100.00;92783.94;1066051;55;20192;-83
2020/12/02 03:20:55;;;;;;;;;;;;;;;-1.02;100.00;92791.69;1068385;55;20186;-84
2020/12/02 03:21:59;;;;;;;;;;;;;;;-1.02;100.00;92789.81;1066359;55;20157;-83
2020/12/02 03:22:59;;;;;;;;;;;;;;;-1.00;100.00;92789.47;1066319;55;20246;-83
2020/12/02 03:24:00;;;;;;;;;;;;;;;-1.02;100.00;92786.44;1070319;55;20246;-83
2020/12/02 03:25:00;;;;;;;;;;;;;;;-1.05;100.00;92782.66;1070452;55;20199;-83
2020/12/02 03:26:04;;;;;;;;;;;;;;;-1.03;100.00;92782.31;1065770;55;20157;-84
2020/12/02 03:27:04;;;;;;;;;;;;;;;-1.03;100.00;92782.31;1066279;55;20180;-84
2020/12/02 03:28:07;;;;;;;;;;;;;;;-1.01;100.00;92772.22;1065871;55;20184;-84
2020/12/02 03:29:09;;;;;;;;;;;;;;;-1.06;100.00;92783.00;1065847;55;20252;-83
2020/12/02 03:30:09;;;;;;;;;;;;;;;-1.11;100.00;92773.56;1066114;55;20621;-84
2020/12/02 03:31:13;;;;;;;;;;;;;;;-1.10;100.00;92774.31;1068096;55;20610;-82
2020/12/02 03:32:15;;;;;;;;;;;;;;;-1.11;100.00;92778.06;1068417;55;20622;-83
2020/12/02 03:33:16;;;;;;;;;;;;;;;-1.10;100.00;92771.69;1068223;55;20168;-82
2020/12/02 03:34:17;;;;;;;;;;;;;;;-1.17;100.00;92779.47;1066212;55;20169;-84
2020/12/02 03:35:18;;;;;;;;;;;;;;;-1.13;100.00;92775.03;1066196;55;20646;-84
2020/12/02 03:36:26;;;;;;;;;;;;;;;-1.23;100.00;92770.34;1066555;55;20157;-82
2020/12/02 03:37:27;;;;;;;;;;;;;;;-1.17;100.00;92776.84;1066440;55;20605;-82
2020/12/02 03:38:27;;;;;;;;;;;;;;;-1.19;100.00;92773.78;1068244;55;20176;-82
2020/12/02 03:39:28;;;;;;;;;;;;;;;-1.15;100.00;92780.63;1068304;55;20145;-84
2020/12/02 03:40:28;;;;;;;;;;;;;;;-1.07;100.00;92777.00;1068345;55;20160;-82
2020/12/02 03:41:29;;;;;;;;;;;;;;;-1.08;100.00;92774.75;1066090;55;20192;-84
2020/12/02 03:42:29;;;;;;;;;;;;;;;-1.13;100.00;92769.78;1066076;55;20177;-83
2020/12/02 03:43:30;;;;;;;;;;;;;;;-1.14;100.00;92774.28;1066153;55;20184;-83
2020/12/02 03:44:30;;;;;;;;;;;;;;;-1.16;100.00;92773.84;1064012;56;20154;-86
2020/12/02 03:45:31;;;;;;;;;;;;;;;-1.15;100.00;92764.88;1068264;55;20175;-84
2020/12/02 03:46:31;;;;;;;;;;;;;;;-1.12;100.00;92766.81;1063920;56;20166;-82
2020/12/02 03:47:32;;;;;;;;;;;;;;;-1.12;100.00;92768.69;1066254;55;20166;-83
2020/12/02 03:48:32;;;;;;;;;;;;;;;-1.05;100.00;92758.31;1064013;56;20169;-83
2020/12/02 03:49:33;;;;;;;;;;;;;;;-1.12;100.00;92758.19;1065947;55;20723;-85
2020/12/02 03:50:33;;;;;;;;;;;;;;;-1.15;100.00;92759.63;1068227;55;20669;-82
2020/12/02 03:51:35;;;;;;;;;;;;;;;-1.09;100.00;92771.38;1070241;55;20724;-82
2020/12/02 03:52:35;;;;;;;;;;;;;;;-1.11;100.00;92763.06;1070345;55;21237;-83
2020/12/02 03:53:36;;;;;;;;;;;;;;;-0.93;100.00;92762.59;1065618;55;20162;-81
2020/12/02 03:54:36;;;;;;;;;;;;;;;-0.91;100.00;92753.28;1068322;55;20157;-82
2020/12/02 03:55:37;;;;;;;;;;;;;;;-1.01;100.00;92756.47;1068423;55;20668;-83
2020/12/02 03:56:37;;;;;;;;;;;;;;;-1.06;100.00;92756.78;1066014;55;20180;-86
2020/12/02 03:57:38;;;;;;;;;;;;;;;-1.11;100.00;92755.19;1066222;55;20188;-82
2020/12/02 03:58:38;;;;;;;;;;;;;;;-1.11;100.00;92757.81;1066199;55;20169;-84
2020/12/02 03:59:39;;;;;;;;;;;;;;;-1.09;100.00;92768.75;1066028;55;20180;-82
2020/12/02 04:00:40;;;;;;;;;;;;;;;-1.13;100.00;92757.44;1064050;56;21068;-82
2020/12/02 04:01:40;;;;;;;;;;;;;;;-1.13;100.00;92759.31;1066113;55;20676;-83
2020/12/02 04:02:41;;;;;;;;;;;;;;;-1.14;100.00;92763.00;1066162;55;20150;-83
2020/12/02 04:03:44;;;;;;;;;;;;;;;-1.14;100.00;92757.75;1064392;55;20209;-83
2020/12/02 04:04:47;;;;;;;;;;;;;;;-1.13;100.00;92751.44;1064211;55;20158;-82
2020/12/02 04:05:55;;;;;;;;;;;;;;;-1.11;100.00;92749.19;1066879;55;20188;-82
2020/12/02 04:06:55;;;;;;;;;;;;;;;-1.09;100.00;92750.38;1066590;55;20157;-83
2020/12/02 04:07:56;;;;;;;;;;;;;;;-1.08;100.00;92746.66;1065990;55;20189;-83
2020/12/02 04:08:56;;;;;;;;;;;;;;;-1.07;100.00;92747.41;1064036;56;20185;-82
2020/12/02 04:10:00;;;;;;;;;;;;;;;-1.07;100.00;92755.25;1066149;55;20262;-85
2020/12/02 04:11:05;;;;;;;;;;;;;;;-0.96;100.00;92748.34;1068523;55;20161;-85
2020/12/02 04:12:06;;;;;;;;;;;;;;;-0.97;100.00;92751.28;1068211;55;20212;-84
2020/12/02 04:13:07;;;;;;;;;;;;;;;-1.03;100.00;92751.59;1064059;55;20243;-82
2020/12/02 04:14:10;;;;;;;;;;;;;;;-0.98;100.00;92747.16;1068148;55;20251;-82
2020/12/02 04:15:21;;;;;;;;;;;;;;;-1.03;100.00;92753.47;1068338;55;20200;-83
2020/12/02 04:16:31;;;;;;;;;;;;;;;-0.99;100.00;92746.41;1068103;55;20169;-82
2020/12/02 04:17:42;;;;;;;;;;;;;;;-0.92;100.00;92748.38;1066429;55;20185;-83
2020/12/02 04:18:42;;;;;;;;;;;;;;;-0.94;100.00;92758.47;1064045;55;20673;-83
2020/12/02 04:19:43;;;;;;;;;;;;;;;-0.88;100.00;92754.41;1065771;55;20165;-83
2020/12/02 04:20:43;;;;;;;;;;;;;;;-0.85;100.00;92757.09;1068002;55;20247;-82
2020/12/02 04:21:43;;;;;;;;;;;;;;;-0.88;100.00;92762.28;1065688;55;20165;-83
2020/12/02 04:22:45;;;;;;;;;;;;;;;-0.91;100.00;92765.63;1063837;56;20638;-83
2020/12/02 04:23:46;;;;;;;;;;;;;;;-0.91;100.00;92763.00;1064053;55;20181;-84
2020/12/02 04:24:46;;;;;;;;;;;;;;;-0.92;100.00;92762.25;1063730;56;20153;-82
2020/12/02 04:25:46;;;;;;;;;;;;;;;-0.88;100.00;92757.03;1061572;56;20271;-81
2020/12/02 04:26:47;;;;;;;;;;;;;;;-1.04;100.00;92755.31;1068054;55;20180;-83
2020/12/02 04:27:47;;;;;;;;;;;;;;;-0.97;100.00;92754.66;1065983;55;20660;-83
2020/12/02 04:28:49;;;;;;;;;;;;;;;-0.92;100.00;92754.38;1063780;55;20197;-84
2020/12/02 04:29:49;;;;;;;;;;;;;;;-1.02;100.00;92753.09;1063891;55;20673;-83
2020/12/02 04:30:50;;;;;;;;;;;;;;;-1.00;100.00;92752.75;1065975;55;20186;-83
2020/12/02 04:31:51;;;;;;;;;;;;;;;-1.07;100.00;92758.66;1063690;55;20185;-84
2020/12/02 04:32:53;;;;;;;;;;;;;;;-1.02;100.00;92758.34;1061765;55;20229;-84
2020/12/02 04:33:53;;;;;;;;;;;;;;;-0.97;100.00;92752.03;1063755;56;20736;-81
2020/12/02 04:34:54;;;;;;;;;;;;;;;-0.98;100.00;92757.66;1065933;55;20188;-83
2020/12/02 04:35:54;;;;;;;;;;;;;;;-1.12;100.00;92758.19;1068174;55;20184;-83
2020/12/02 04:36:55;;;;;;;;;;;;;;;-1.11;100.00;92763.06;1063767;56;20217;-83
2020/12/02 04:37:55;;;;;;;;;;;;;;;-1.04;100.00;92760.56;1065899;55;20192;-84
2020/12/02 04:38:55;;;;;;;;;;;;;;;-0.99;100.00;92762.13;1065792;55;20200;-83
2020/12/02 04:39:57;;;;;;;;;;;;;;;-1.06;100.00;92764.62;1063669;56;20244;-82
2020/12/02 04:40:57;;;;;;;;;;;;;;;-1.16;100.00;92750.25;1068031;55;20169;-84
2020/12/02 04:42:00;;;;;;;;;;;;;;;-1.09;100.00;92758.25;1063883;55;20654;-84
2020/12/02 04:43:04;;;;;;;;;;;;;;;-1.13;100.00;92752.19;1063925;55;20162;-83
2020/12/02 04:44:04;;;;;;;;;;;;;;;-1.13;100.00;92751.44;1066390;55;20169;-83
2020/12/02 04:45:06;;;;;;;;;;;;;;;-1.12;100.00;92750.31;1066123;55;20161;-83
2020/12/02 04:46:16;;;;;;;;;;;;;;;-1.15;100.00;92753.63;1064052;55;20233;-83
2020/12/02 04:47:16;;;;;;;;;;;;;;;-1.09;100.00;92749.62;1066529;55;20551;-84
2020/12/02 04:48:21;;;;;;;;;;;;;;;-1.06;100.00;92751.53;1068439;55;20244;-84
2020/12/02 04:49:32;;;;;;;;;;;;;;;-1.06;100.00;92749.66;1066369;55;20656;-84
2020/12/02 04:50:33;;;;;;;;;;;;;;;-1.07;100.00;92744.78;1066511;55;20157;-84
2020/12/02 04:51:33;;;;;;;;;;;;;;;-1.11;100.00;92744.72;1066418;55;21001;-83
2020/12/02 04:52:34;;;;;;;;;;;;;;;-1.05;100.00;92742.56;1066221;55;20213;-85
2020/12/02 04:53:36;;;;;;;;;;;;;;;-1.07;100.00;92747.41;1067765;55;20189;-82
2020/12/02 04:54:37;;;;;;;;;;;;;;;-1.08;100.00;92751.13;1066291;55;20229;-83
2020/12/02 04:55:38;;;;;;;;;;;;;;;-1.13;100.00;92741.69;1066227;55;20173;-84
2020/12/02 04:56:42;;;;;;;;;;;;;;;-1.11;100.00;92749.97;1065959;55;20162;-82
2020/12/02 04:57:43;;;;;;;;;;;;;;;-1.13;100.00;92743.56;1066176;55;20293;-83
2020/12/02 04:58:46;;;;;;;;;;;;;;;-1.15;100.00;92749.16;1064380;55;20184;-83
2020/12/02 04:59:46;;;;;;;;;;;;;;;-1.11;100.00;92752.59;1066216;55;20202;-83
2020/12/02 05:00:46;;;;;;;;;;;;;;;-1.17;100.00;92748.75;1064094;55;20158;-83
2020/12/02 05:01:50;;;;;;;;;;;;;;;-1.10;100.00;92745.47;1064151;55;20173;-81
2020/12/02 05:02:50;;;;;;;;;;;;;;;-1.13;100.00;92740.94;1066088;55;21016;-84
2020/12/02 05:03:53;;;;;;;;;;;;;;;-1.11;100.00;92742.09;1066170;55;20185;-83
2020/12/02 05:04:58;;;;;;;;;;;;;;;-1.14;100.00;92748.06;1064336;55;20204;-85
2020/12/02 05:06:01;;;;;;;;;;;;;;;-1.14;100.00;92740.19;1064293;55;20266;-84
2020/12/02 05:07:06;;;;;;;;;;;;;;;-1.11;100.00;92742.09;1061770;56;20221;-84
2020/12/02 05:08:25;;;;;;;;;;;;;;;-1.12;100.00;92745.06;1061498;55;20647;-82
2020/12/02 05:09:25;;;;;;;;;;;;;;;-1.16;100.00;92744.25;1065258;55;20196;-84
2020/12/02 05:10:34;;;;;;;;;;;;;;;-1.14;100.00;92742.81;1064038;55;20193;-85
2020/12/02 05:11:41;;;;;;;;;;;;;;;-0.99;100.00;92743.03;1066542;55;20193;-83
2020/12/02 05:12:43;;;;;;;;;;;;;;;-1.04;100.00;92746.69;1066220;55;20266;-83
2020/12/02 05:14:00;;;;;;;;;;;;;;;-1.06;100.00;92741.03;1064176;55;20153;-87
2020/12/02 05:15:29;;;;;;;;;;;;;;;-1.03;100.00;92746.34;1066106;55;20701;-83
2020/12/02 05:16:32;;;;;;;;;;;;;;;-1.05;100.00;92751.19;1062709;56;20264;-85
2020/12/02 05:17:32;;;;;;;;;;;;;;;-1.10;100.00;92734.97;1063931;55;20255;-83
2020/12/02 05:18:33;;;;;;;;;;;;;;;-1.15;100.00;92743.91;1066203;55;20305;-85
2020/12/02 05:19:34;;;;;;;;;;;;;;;-1.01;100.00;92738.13;1066230;55;20205;-84
2020/12/02 05:20:34;;;;;;;;;;;;;;;-1.06;100.00;92741.78;1066358;55;21000;-83
2020/12/02 05:21:41;;;;;;;;;;;;;;;-1.04;100.00;92744.84;1064059;55;20181;-84
2020/12/02 05:22:42;;;;;;;;;;;;;;;-1.04;100.00;92755.31;1064666;55;20773;-83